createdAt,value
2023-03-27T00:00:37.208Z,9.04
2023-03-27T00:03:41.392Z,8.98
2023-03-27T00:06:45.579Z,8.99
2023-03-27T00:09:48.671Z,8.99
2023-03-27T00:12:51.311Z,8.97
2023-03-27T00:15:55.551Z,9.01
2023-03-27T00:18:58.813Z,8.94
2023-03-27T00:22:02.128Z,8.89
2023-03-27T00:25:05.558Z,8.95
2023-03-27T00:28:09.213Z,8.97
2023-03-27T00:31:14.393Z,9.01
2023-03-27T00:34:17.879Z,8.98
2023-03-27T00:37:20.859Z,8.97
2023-03-27T00:40:25.708Z,8.87
2023-03-27T00:43:34.130Z,8.91
2023-03-27T00:46:43.906Z,8.89
2023-03-27T00:49:48.278Z,8.78
2023-03-27T00:52:56.372Z,8.74
2023-03-27T00:56:02.967Z,8.74
2023-03-27T00:59:14.818Z,8.85
2023-03-27T01:02:18.564Z,8.83
2023-03-27T01:05:22.255Z,8.74
2023-03-27T01:08:27.299Z,8.78
2023-03-27T01:11:39.740Z,8.73
2023-03-27T01:15:04.758Z,8.80
2023-03-27T01:18:32.557Z,8.87
2023-03-27T01:22:27.151Z,8.79
2023-03-27T01:26:04.630Z,8.87
2023-03-27T01:29:31.044Z,8.80
2023-03-27T01:32:50.017Z,8.78
2023-03-27T01:35:55.840Z,8.76
2023-03-27T01:39:30.033Z,8.69
2023-03-27T01:42:50.068Z,8.66
2023-03-27T01:46:01.912Z,8.55
2023-03-27T01:49:12.991Z,8.48
2023-03-27T01:52:25.386Z,8.38
2023-03-27T01:55:32.860Z,8.37
2023-03-27T01:58:42.058Z,8.35
2023-03-27T02:01:51.388Z,8.51
2023-03-27T02:05:16.265Z,8.39
2023-03-27T02:08:55.584Z,8.45
2023-03-27T02:12:16.846Z,8.45
2023-03-27T02:15:25.543Z,8.47
2023-03-27T02:18:34.292Z,8.43
2023-03-27T02:21:37.798Z,8.49
2023-03-27T02:24:43.660Z,8.50
2023-03-27T02:27:50.184Z,8.60
2023-03-27T02:31:32.364Z,8.55
2023-03-27T02:34:58.889Z,8.60
2023-03-27T02:38:02.680Z,8.54
2023-03-27T02:41:19.516Z,8.65
2023-03-27T02:44:25.826Z,8.68
2023-03-27T02:47:39.654Z,8.64
2023-03-27T02:50:56.580Z,8.67
2023-03-27T02:54:05.104Z,8.49
2023-03-27T02:57:15.123Z,8.51
2023-03-27T03:00:28.532Z,8.47
2023-03-27T03:03:41.979Z,8.65
2023-03-27T03:06:45.750Z,8.76
2023-03-27T03:09:48.960Z,8.75
2023-03-27T03:12:51.894Z,8.64
2023-03-27T03:15:55.134Z,8.64
2023-03-27T03:18:58.799Z,8.69
2023-03-27T03:22:09.061Z,8.61
2023-03-27T03:25:13.031Z,8.52
2023-03-27T03:28:18.706Z,8.68
2023-03-27T03:31:22.573Z,8.73
2023-03-27T03:34:28.077Z,8.65
2023-03-27T03:37:38.854Z,8.59
2023-03-27T03:40:43.021Z,8.59
2023-03-27T03:43:46.058Z,8.57
2023-03-27T03:46:49.207Z,8.58
2023-03-27T03:49:55.868Z,8.69
2023-03-27T03:53:00.821Z,8.49
2023-03-27T03:56:05.422Z,8.51
2023-03-27T03:59:10.080Z,8.49
2023-03-27T04:02:13.189Z,8.47
2023-03-27T04:05:17.109Z,8.51
2023-03-27T04:08:20.152Z,8.52
2023-03-27T04:11:24.783Z,8.55
2023-03-27T04:14:28.012Z,8.59
2023-03-27T04:17:33.575Z,8.66
2023-03-27T04:20:37.530Z,8.53
2023-03-27T04:23:46.017Z,8.53
2023-03-27T04:26:49.192Z,8.57
2023-03-27T04:29:54.960Z,8.58
2023-03-27T04:33:03.711Z,8.51
2023-03-27T04:36:11.505Z,8.57
2023-03-27T04:39:18.001Z,8.42
2023-03-27T04:42:23.468Z,8.56
2023-03-27T04:45:27.242Z,8.60
2023-03-27T04:48:30.569Z,8.55
2023-03-27T04:51:33.687Z,8.57
2023-03-27T04:54:37.309Z,8.58
2023-03-27T04:57:39.972Z,8.48
2023-03-27T05:00:50.793Z,8.45
2023-03-27T05:03:56.411Z,8.52
2023-03-27T05:07:03.346Z,8.47
2023-03-27T05:10:06.882Z,8.45
2023-03-27T05:13:12.723Z,8.49
2023-03-27T05:16:17.543Z,8.45
2023-03-27T05:19:21.780Z,8.43
2023-03-27T05:22:25.417Z,8.44
2023-03-27T05:25:32.061Z,8.39
2023-03-27T05:28:34.880Z,8.28
2023-03-27T05:31:38.361Z,8.40
2023-03-27T05:34:47.006Z,8.33
2023-03-27T05:37:53.175Z,8.39
2023-03-27T05:40:57.510Z,8.44
2023-03-27T05:44:01.474Z,8.39
2023-03-27T05:47:06.758Z,8.43
2023-03-27T05:50:10.585Z,8.60
2023-03-27T05:53:14.034Z,8.45
2023-03-27T05:56:17.541Z,8.44
2023-03-27T05:59:22.406Z,8.51
2023-03-27T06:02:27.858Z,8.50
2023-03-27T06:05:32.502Z,8.49
2023-03-27T06:08:38.857Z,8.52
2023-03-27T06:11:42.846Z,8.52
2023-03-27T06:14:45.722Z,8.48
2023-03-27T06:17:52.195Z,8.44
2023-03-27T06:20:55.682Z,8.48
2023-03-27T06:24:00.839Z,8.40
2023-03-27T06:27:03.872Z,8.39
2023-03-27T06:30:08.154Z,8.52
2023-03-27T06:33:12.862Z,8.60
2023-03-27T06:36:16.257Z,8.53
2023-03-27T06:39:20.601Z,8.48
2023-03-27T06:42:24.108Z,8.44
2023-03-27T06:45:31.188Z,8.65
2023-03-27T06:48:36.823Z,8.58
2023-03-27T06:51:39.841Z,8.60
2023-03-27T06:54:42.745Z,8.50
2023-03-27T06:57:51.171Z,8.57
2023-03-27T07:00:55.406Z,8.59
2023-03-27T07:04:02.276Z,8.67
2023-03-27T07:07:09.476Z,8.59
2023-03-27T07:10:13.392Z,8.47
2023-03-27T07:13:16.681Z,8.61
2023-03-27T07:16:19.940Z,8.50
2023-03-27T07:19:23.260Z,8.60
2023-03-27T07:22:27.339Z,8.58
2023-03-27T07:25:37.274Z,8.47
2023-03-27T07:28:42.390Z,8.45
2023-03-27T07:31:57.678Z,8.46
2023-03-27T07:35:05.299Z,8.57
2023-03-27T07:38:12.593Z,8.55
2023-03-27T07:41:17.550Z,8.52
2023-03-27T07:44:23.114Z,8.57
2023-03-27T07:47:27.189Z,8.47
2023-03-27T07:50:33.767Z,8.40
2023-03-27T07:53:37.198Z,8.37
2023-03-27T07:56:40.981Z,8.33
2023-03-27T07:59:57.350Z,8.46
2023-03-27T08:03:09.550Z,8.52
2023-03-27T08:06:14.041Z,8.47
2023-03-27T08:09:17.279Z,8.49
2023-03-27T08:12:22.308Z,8.61
2023-03-27T08:15:26.555Z,8.46
2023-03-27T08:18:30.212Z,8.33
2023-03-27T08:21:34.306Z,8.32
2023-03-27T08:24:46.555Z,8.38
2023-03-27T08:27:51.176Z,8.49
2023-03-27T08:31:02.544Z,8.20
2023-03-27T08:34:09.454Z,8.33
2023-03-27T08:37:17.252Z,7.99
2023-03-27T08:40:28.237Z,8.21
2023-03-27T08:43:39.010Z,8.37
2023-03-27T08:46:58.272Z,8.32
2023-03-27T08:50:09.993Z,8.25
2023-03-27T08:53:41.703Z,8.08
2023-03-27T08:56:46.713Z,7.99
2023-03-27T08:59:57.777Z,8.52
2023-03-27T09:03:09.803Z,8.54
2023-03-27T09:06:33.109Z,8.51
2023-03-27T09:09:46.766Z,8.59
2023-03-27T09:13:15.475Z,8.62
2023-03-27T09:16:49.540Z,8.31
2023-03-27T09:20:23.820Z,8.33
2023-03-27T09:23:57.822Z,8.64
2023-03-27T09:27:13.958Z,9.10
2023-03-27T09:30:24.524Z,8.93
2023-03-27T09:33:50.980Z,8.87
2023-03-27T09:36:56.415Z,8.93
2023-03-27T09:40:02.103Z,8.90
2023-03-27T09:43:12.739Z,8.79
2023-03-27T09:46:21.043Z,8.98
2023-03-27T09:49:27.880Z,9.23
2023-03-27T09:52:42.995Z,9.09
2023-03-27T09:56:01.072Z,8.91
2023-03-27T09:59:25.625Z,8.69
2023-03-27T10:02:33.353Z,8.91
2023-03-27T10:05:37.173Z,9.16
2023-03-27T10:08:47.534Z,8.91
2023-03-27T10:12:00.116Z,8.64
2023-03-27T10:15:07.001Z,8.33
2023-03-27T10:18:27.226Z,8.55
2023-03-27T10:21:39.866Z,8.46
2023-03-27T10:24:47.575Z,8.34
2023-03-27T10:27:52.975Z,8.12
2023-03-27T10:31:24.023Z,8.55
2023-03-27T10:34:52.807Z,8.61
2023-03-27T10:37:58.064Z,8.45
2023-03-27T10:41:05.024Z,8.90
2023-03-27T10:44:26.127Z,8.44
2023-03-27T10:47:33.781Z,8.20
2023-03-27T10:50:45.989Z,7.94
2023-03-27T10:53:57.366Z,8.31
2023-03-27T10:57:17.605Z,8.27
2023-03-27T11:00:33.296Z,8.26
2023-03-27T11:03:59.599Z,8.22
2023-03-27T11:07:14.833Z,8.34
2023-03-27T11:10:30.922Z,7.98
2023-03-27T11:13:41.274Z,8.20
2023-03-27T11:16:57.217Z,7.65
2023-03-27T11:20:16.312Z,8.26
2023-03-27T11:23:33.537Z,8.21
2023-03-27T11:26:57.512Z,7.85
2023-03-27T11:30:08.773Z,7.85
2023-03-27T11:33:32.285Z,7.88
2023-03-27T11:37:02.227Z,7.80
2023-03-27T11:40:23.886Z,8.21
2023-03-27T11:43:51.451Z,8.35
2023-03-27T11:47:31.649Z,8.34
2023-03-27T11:50:53.442Z,7.97
2023-03-27T11:54:42.955Z,8.18
2023-03-27T11:58:24.930Z,8.30
2023-03-27T12:01:56.257Z,8.21
2023-03-27T12:05:21.061Z,8.08
2023-03-27T12:08:55.937Z,7.98
2023-03-27T12:12:45.773Z,8.00
2023-03-27T12:16:05.366Z,8.39
2023-03-27T12:19:28.361Z,8.02
2023-03-27T12:23:29.781Z,7.96
2023-03-27T12:26:45.202Z,8.19
2023-03-27T12:30:19.007Z,8.09
2023-03-27T12:33:33.785Z,8.27
2023-03-27T12:36:39.829Z,8.50
2023-03-27T12:39:51.992Z,8.38
2023-03-27T12:43:04.366Z,8.23
2023-03-27T12:46:10.784Z,8.31
2023-03-27T12:49:14.028Z,8.40
2023-03-27T12:52:19.492Z,8.26
2023-03-27T12:55:36.328Z,8.18
2023-03-27T12:58:41.603Z,8.31
2023-03-27T13:01:52.174Z,8.30
2023-03-27T13:05:24.104Z,8.60
2023-03-27T13:09:04.140Z,8.64
2023-03-27T13:12:29.419Z,8.58
2023-03-27T13:15:58.614Z,8.52
2023-03-27T13:19:20.392Z,8.57
2023-03-27T13:22:27.982Z,8.49
2023-03-27T13:25:58.641Z,8.38
2023-03-27T13:29:20.804Z,8.34
2023-03-27T13:32:40.178Z,8.45
2023-03-27T13:36:00.508Z,7.84
2023-03-27T13:39:24.942Z,8.08
2023-03-27T13:42:34.884Z,7.82
2023-03-27T13:45:49.512Z,7.62
2023-03-27T13:49:15.960Z,7.66
2023-03-27T13:52:32.510Z,7.63
2023-03-27T13:56:13.201Z,7.48
2023-03-27T13:59:19.649Z,7.31
2023-03-27T14:02:53.894Z,7.39
2023-03-27T14:06:04.803Z,7.32
2023-03-27T14:09:08.311Z,7.20
2023-03-27T14:12:42.731Z,7.25
2023-03-27T14:16:10.818Z,7.15
2023-03-27T14:19:23.792Z,6.88
2023-03-27T14:22:40.232Z,6.67
2023-03-27T14:26:01.807Z,6.66
2023-03-27T14:29:05.990Z,6.55
2023-03-27T14:32:18.863Z,6.48
2023-03-27T14:35:29.404Z,6.60
2023-03-27T14:38:37.440Z,6.49
2023-03-27T14:41:59.385Z,6.54
2023-03-27T14:45:30.433Z,6.37
2023-03-27T14:48:37.116Z,6.39
2023-03-27T14:51:42.191Z,6.22
2023-03-27T14:54:54.697Z,5.81
2023-03-27T14:58:10.863Z,5.95
2023-03-27T15:01:17.327Z,6.01
2023-03-27T15:04:25.385Z,5.80
2023-03-27T15:07:34.144Z,5.86
2023-03-27T15:10:51.291Z,6.03
2023-03-27T15:13:57.275Z,5.78
2023-03-27T15:17:11.898Z,5.73
2023-03-27T15:20:20.168Z,5.80
2023-03-27T15:23:36.959Z,5.43
2023-03-27T15:26:41.200Z,5.39
2023-03-27T15:30:10.353Z,5.25
2023-03-27T15:33:26.086Z,5.29
2023-03-27T15:36:34.384Z,5.15
2023-03-27T15:39:57.778Z,5.07
2023-03-27T15:43:05.716Z,5.04
2023-03-27T15:46:17.753Z,4.76
2023-03-27T15:49:26.507Z,4.87
2023-03-27T15:52:33.923Z,4.84
2023-03-27T15:55:47.414Z,4.87
2023-03-27T15:58:57.495Z,4.71
2023-03-27T16:02:14.631Z,4.69
2023-03-27T16:05:18.640Z,4.62
2023-03-27T16:08:48.247Z,4.69
2023-03-27T16:11:54.204Z,4.72
2023-03-27T16:14:58.179Z,4.72
2023-03-27T16:18:24.824Z,4.59
2023-03-27T16:21:28.112Z,4.61
2023-03-27T16:24:31.000Z,4.52
2023-03-27T16:27:39.964Z,4.63
2023-03-27T16:30:45.926Z,4.55
2023-03-27T16:33:48.531Z,4.52
2023-03-27T16:36:51.586Z,4.47
2023-03-27T16:39:55.288Z,4.49
2023-03-27T16:42:58.227Z,4.50
2023-03-27T16:46:01.052Z,4.49
2023-03-27T16:49:04.409Z,4.50
2023-03-27T16:52:07.422Z,4.53
2023-03-27T16:55:13.067Z,4.51
2023-03-27T16:58:16.848Z,4.51
2023-03-27T17:01:24.064Z,4.47
2023-03-27T17:04:28.388Z,4.65
2023-03-27T17:07:31.901Z,4.64
2023-03-27T17:10:35.428Z,4.58
2023-03-27T17:13:42.899Z,4.58
2023-03-27T17:16:47.585Z,4.59
2023-03-27T17:19:50.855Z,4.63
2023-03-27T17:22:53.959Z,4.60
2023-03-27T17:26:00.938Z,4.63
2023-03-27T17:29:06.809Z,4.71
2023-03-27T17:32:11.195Z,4.66
2023-03-27T17:35:14.326Z,4.47
2023-03-27T17:38:19.248Z,4.58
2023-03-27T17:41:22.452Z,4.60
2023-03-27T17:44:26.653Z,4.46
2023-03-27T17:47:29.966Z,4.35
2023-03-27T17:50:34.296Z,4.44
2023-03-27T17:53:39.088Z,4.35
2023-03-27T17:56:42.844Z,4.39
2023-03-27T17:59:47.888Z,4.36
2023-03-27T18:02:52.159Z,4.37
2023-03-27T18:06:03.899Z,4.30
2023-03-27T18:09:08.023Z,4.29
2023-03-27T18:12:11.645Z,4.01
2023-03-27T18:15:14.820Z,4.11
2023-03-27T18:18:20.524Z,3.96
2023-03-27T18:21:23.913Z,3.96
2023-03-27T18:24:27.158Z,3.83
2023-03-27T18:27:30.394Z,3.83
2023-03-27T18:30:37.559Z,3.83
2023-03-27T18:33:40.581Z,3.89
2023-03-27T18:36:50.858Z,3.66
2023-03-27T18:39:53.899Z,3.68
2023-03-27T18:42:57.393Z,3.63
2023-03-27T18:46:04.160Z,3.70
2023-03-27T18:49:21.447Z,3.67
2023-03-27T18:52:27.811Z,3.63
2023-03-27T18:55:32.400Z,3.65
2023-03-27T18:58:36.386Z,3.61
2023-03-27T19:01:39.876Z,3.58
2023-03-27T19:04:44.262Z,3.58
2023-03-27T19:07:47.818Z,3.53
2023-03-27T19:10:55.445Z,3.55
2023-03-27T19:13:59.251Z,3.48
2023-03-27T19:17:04.152Z,3.46
2023-03-27T19:20:11.216Z,3.39
2023-03-27T19:23:16.263Z,3.43
2023-03-27T19:26:20.448Z,3.47
2023-03-27T19:29:23.335Z,3.48
2023-03-27T19:32:27.082Z,3.42
2023-03-27T19:35:30.501Z,3.39
2023-03-27T19:38:34.071Z,3.33
2023-03-27T19:41:36.691Z,3.30
2023-03-27T19:44:40.344Z,3.30
2023-03-27T19:47:43.708Z,3.26
2023-03-27T19:50:57.777Z,3.23
2023-03-27T19:54:02.000Z,3.19
2023-03-27T19:57:07.501Z,3.30
2023-03-27T20:00:12.869Z,3.21
2023-03-27T20:03:19.834Z,3.25
2023-03-27T20:06:26.040Z,3.22
2023-03-27T20:09:29.193Z,3.22
2023-03-27T20:12:33.198Z,3.18
2023-03-27T20:15:39.341Z,3.16
2023-03-27T20:18:42.788Z,3.18
2023-03-27T20:21:46.436Z,3.15
2023-03-27T20:24:50.247Z,3.09
2023-03-27T20:27:52.885Z,3.13
2023-03-27T20:31:03.175Z,3.09
2023-03-27T20:34:07.075Z,3.14
2023-03-27T20:37:13.215Z,3.05
2023-03-27T20:40:17.818Z,3.12
2023-03-27T20:43:23.092Z,3.10
2023-03-27T20:46:30.533Z,3.09
2023-03-27T20:49:41.233Z,3.11
2023-03-27T20:52:48.352Z,3.07
2023-03-27T20:56:00.046Z,3.07
2023-03-27T20:59:03.173Z,3.05
2023-03-27T21:02:06.849Z,2.98
2023-03-27T21:05:09.709Z,2.96
2023-03-27T21:08:13.398Z,2.95
2023-03-27T21:11:17.955Z,2.95
2023-03-27T21:14:21.190Z,2.94
2023-03-27T21:17:24.250Z,2.93
2023-03-27T21:20:27.594Z,2.93
2023-03-27T21:23:30.762Z,2.95
2023-03-27T21:26:34.642Z,2.89
2023-03-27T21:29:37.452Z,2.86
2023-03-27T21:32:40.813Z,2.82
2023-03-27T21:35:47.062Z,2.79
2023-03-27T21:38:50.483Z,2.81
2023-03-27T21:41:53.454Z,2.77
2023-03-27T21:44:57.445Z,2.74
2023-03-27T21:48:00.357Z,2.72
2023-03-27T21:51:06.700Z,2.69
2023-03-27T21:54:09.312Z,2.63
2023-03-27T21:57:12.132Z,2.60
2023-03-27T22:00:15.783Z,2.60
2023-03-27T22:03:19.665Z,2.63
2023-03-27T22:06:22.291Z,2.62
2023-03-27T22:09:25.268Z,2.53
2023-03-27T22:12:28.268Z,2.61
2023-03-27T22:15:31.582Z,2.56
2023-03-27T22:18:34.995Z,2.56
2023-03-27T22:21:39.521Z,2.52
2023-03-27T22:24:42.340Z,2.55
2023-03-27T22:27:47.315Z,2.49
2023-03-27T22:30:51.647Z,2.44
2023-03-27T22:33:54.760Z,2.48
2023-03-27T22:36:57.562Z,2.46
2023-03-27T22:40:00.809Z,2.48
2023-03-27T22:43:03.294Z,2.43
2023-03-27T22:46:14.763Z,2.42
2023-03-27T22:49:17.306Z,2.37
2023-03-27T22:52:20.686Z,2.47
2023-03-27T22:55:23.173Z,2.39
2023-03-27T22:58:27.706Z,2.45
2023-03-27T23:01:30.388Z,2.38
2023-03-27T23:04:33.404Z,2.36
2023-03-27T23:07:36.256Z,2.33
2023-03-27T23:10:39.731Z,2.30
2023-03-27T23:13:42.402Z,2.29
2023-03-27T23:16:45.633Z,2.26
2023-03-27T23:19:48.260Z,2.17
2023-03-27T23:22:51.292Z,2.26
2023-03-27T23:25:55.413Z,2.24
2023-03-27T23:28:58.438Z,2.22
2023-03-27T23:32:02.187Z,2.17
2023-03-27T23:35:07.446Z,2.18
2023-03-27T23:38:10.313Z,2.13
2023-03-27T23:41:16.245Z,2.05
2023-03-27T23:44:19.808Z,2.11
2023-03-27T23:47:22.646Z,2.04
2023-03-27T23:50:27.346Z,1.93
2023-03-27T23:53:30.904Z,1.91
2023-03-27T23:56:33.888Z,1.88
2023-03-27T23:59:37.917Z,1.83
